Time;durP1;ratioP1;P1;durP2;ratioP2;P2;SDS_P1;SDS_P2;PMS_P1;PMS_P2;Temp;Humidity;BMP_temperature;BMP_pressure;BME280_temperature;BME280_humidity;BME280_pressure;Samples;Min_cycle;Max_cycle;Signal;HPM_P1;HPM_P2
2023/11/09 00:00:57;;;;;;;14.90;4.72;;;;;;;;;;6277794;22;20038;-82
2023/11/09 00:03:27;;;;;;;11.10;4.00;;;;;;;;;;6249615;22;20327;-82
2023/11/09 00:05:57;;;;;;;10.25;4.45;;;;;;;;;;6250592;22;20024;-81
2023/11/09 00:08:30;;;;;;;10.13;4.53;;;;;;;;;;6251568;22;20320;-81
2023/11/09 00:11:02;;;;;;;11.10;4.03;;;;;;;;;;6281977;22;20015;-81
2023/11/09 00:13:32;;;;;;;12.57;4.97;;;;;;;;;;6287088;22;20012;-81
2023/11/09 00:16:02;;;;;;;8.95;4.30;;;;;;;;;;6249408;22;20012;-81
2023/11/09 00:18:32;;;;;;;8.80;3.80;;;;;;;;;;6278247;22;20461;-80
2023/11/09 00:21:02;;;;;;;10.70;4.57;;;;;;;;;;6276740;22;20323;-80
2023/11/09 00:23:34;;;;;;;12.25;4.82;;;;;;;;;;6249832;22;20019;-81
2023/11/09 00:26:11;;;;;;;18.75;4.95;;;;;;;;;;6212970;23;20020;-81
2023/11/09 00:28:50;;;;;;;10.43;4.20;;;;;;;;;;6212506;23;20016;-81
2023/11/09 00:31:22;;;;;;;8.73;4.45;;;;;;;;;;6187919;23;20016;-81
2023/11/09 00:33:53;;;;;;;10.10;3.90;;;;;;;;;;6223966;23;20348;-81
2023/11/09 00:36:23;;;;;;;17.83;4.43;;;;;;;;;;6213226;23;20024;-83
2023/11/09 00:38:54;;;;;;;10.48;4.22;;;;;;;;;;6211739;23;20024;-82
2023/11/09 00:41:24;;;;;;;12.70;4.22;;;;;;;;;;6212729;23;20028;-82
2023/11/09 00:43:55;;;;;;;8.63;4.78;;;;;;;;;;6162923;23;20064;-82
2023/11/09 00:46:27;;;;;;;9.75;4.18;;;;;;;;;;6187553;23;20016;-82
2023/11/09 00:48:59;;;;;;;9.43;4.50;;;;;;;;;;6187976;23;20016;-81
2023/11/09 00:51:30;;;;;;;11.45;4.15;;;;;;;;;;6187361;23;20013;-81
2023/11/09 00:54:01;;;;;;;18.45;4.43;;;;;;;;;;6187904;23;20012;-81
2023/11/09 00:56:32;;;;;;;10.57;4.30;;;;;;;;;;6214662;23;20024;-82
2023/11/09 00:59:03;;;;;;;12.82;4.63;;;;;;;;;;6212945;23;20028;-82
2023/11/09 01:01:33;;;;;;;9.63;4.13;;;;;;;;;;6187193;23;20016;-82
2023/11/09 01:04:05;;;;;;;15.48;4.93;;;;;;;;;;6186902;23;20356;-81
2023/11/09 01:06:40;;;;;;;11.07;4.88;;;;;;;;;;6187995;23;20013;-81
2023/11/09 01:09:10;;;;;;;10.65;4.68;;;;;;;;;;6225167;22;20013;-82
2023/11/09 01:11:40;;;;;;;10.52;4.45;;;;;;;;;;6250013;22;20351;-82
2023/11/09 01:14:12;;;;;;;11.55;4.70;;;;;;;;;;6286044;22;20007;-82
2023/11/09 01:16:49;;;;;;;10.15;5.20;;;;;;;;;;6250346;22;20016;-81
2023/11/09 01:19:22;;;;;;;15.32;5.05;;;;;;;;;;6223996;22;20015;-82
2023/11/09 01:21:52;;;;;;;13.25;5.80;;;;;;;;;;6224481;22;20023;-81
2023/11/09 01:24:24;;;;;;;;;;;;;;;;;;6287066;22;20026;-82
2023/11/09 01:26:55;;;;;;;13.07;5.00;;;;;;;;;;6260247;22;19922;-82
2023/11/09 01:29:25;;;;;;;14.55;5.00;;;;;;;;;;6248264;22;20027;-82
2023/11/09 01:31:57;;;;;;;16.30;5.07;;;;;;;;;;6275974;22;20016;-81
2023/11/09 01:34:28;;;;;;;13.73;4.45;;;;;;;;;;6286036;22;20370;-82
2023/11/09 01:36:58;;;;;;;11.07;4.55;;;;;;;;;;6248373;22;20015;-81
2023/11/09 01:39:28;;;;;;;8.98;4.55;;;;;;;;;;6276284;22;20019;-81
2023/11/09 01:42:00;;;;;;;16.48;5.00;;;;;;;;;;6260170;22;20335;-82
2023/11/09 01:44:30;;;;;;;13.43;5.07;;;;;;;;;;6224767;22;20030;-81
2023/11/09 01:47:01;;;;;;;14.80;5.22;;;;;;;;;;6248413;22;20346;-81
2023/11/09 01:49:35;;;;;;;14.75;5.25;;;;;;;;;;6286231;22;20013;-82
2023/11/09 01:52:07;;;;;;;9.85;5.13;;;;;;;;;;6248574;22;20011;-82
2023/11/09 01:54:38;;;;;;;10.98;5.25;;;;;;;;;;6248998;22;20027;-83
2023/11/09 01:57:10;;;;;;;13.70;5.78;;;;;;;;;;6248637;22;20027;-81
2023/11/09 01:59:44;;;;;;;14.93;4.85;;;;;;;;;;6248489;22;20019;-82
2023/11/09 02:02:15;;;;;;;12.70;4.78;;;;;;;;;;6225551;22;20020;-81
2023/11/09 02:04:46;;;;;;;12.48;5.15;;;;;;;;;;6249752;22;20023;-81
2023/11/09 02:07:18;;;;;;;12.57;4.57;;;;;;;;;;6244460;22;20019;-81
2023/11/09 02:09:51;;;;;;;9.43;5.05;;;;;;;;;;6248864;22;20011;-81
2023/11/09 02:12:22;;;;;;;10.63;4.47;;;;;;;;;;6250737;22;20012;-81
2023/11/09 02:14:52;;;;;;;13.50;4.72;;;;;;;;;;6277662;22;20018;-82
2023/11/09 02:17:25;;;;;;;12.45;5.15;;;;;;;;;;6276275;22;20016;-82
2023/11/09 02:19:56;;;;;;;10.30;4.72;;;;;;;;;;6247912;22;20036;-82
2023/11/09 02:22:27;;;;;;;11.00;5.47;;;;;;;;;;6249123;22;20012;-82
2023/11/09 02:24:58;;;;;;;17.13;5.43;;;;;;;;;;6260038;22;20008;-82
2023/11/09 02:27:30;;;;;;;12.70;5.55;;;;;;;;;;6286541;22;20485;-82
2023/11/09 02:30:01;;;;;;;12.35;5.43;;;;;;;;;;6286572;22;20011;-82
2023/11/09 02:32:31;;;;;;;13.95;5.60;;;;;;;;;;6248472;22;20427;-81
2023/11/09 02:35:01;;;;;;;14.73;5.65;;;;;;;;;;6224961;22;20024;-81
2023/11/09 02:37:32;;;;;;;11.35;5.57;;;;;;;;;;6286153;22;20019;-82
2023/11/09 02:40:04;;;;;;;10.63;5.05;;;;;;;;;;6224393;22;20012;-82
2023/11/09 02:42:34;;;;;;;12.93;5.35;;;;;;;;;;6248832;22;20016;-82
2023/11/09 02:45:04;;;;;;;22.90;5.45;;;;;;;;;;6249850;22;20011;-82
2023/11/09 02:47:35;;;;;;;10.18;4.80;;;;;;;;;;6249155;22;20328;-83
2023/11/09 02:50:05;;;;;;;10.02;4.85;;;;;;;;;;6249091;22;20030;-83
2023/11/09 02:52:36;;;;;;;12.63;5.57;;;;;;;;;;6286986;22;20012;-82
2023/11/09 02:55:07;;;;;;;12.88;5.40;;;;;;;;;;6248776;22;20015;-83
2023/11/09 02:57:37;;;;;;;11.63;5.00;;;;;;;;;;6276648;22;20427;-82
2023/11/09 03:00:09;;;;;;;15.88;5.70;;;;;;;;;;6249220;22;20020;-82
2023/11/09 03:02:40;;;;;;;9.93;4.95;;;;;;;;;;6249446;22;20015;-82
2023/11/09 03:05:10;;;;;;;11.98;4.75;;;;;;;;;;6277087;22;20453;-82
2023/11/09 03:07:41;;;;;;;10.15;5.38;;;;;;;;;;6249259;22;20012;-82
2023/11/09 03:10:12;;;;;;;10.45;5.00;;;;;;;;;;6276877;22;20015;-83
2023/11/09 03:12:42;;;;;;;14.32;4.85;;;;;;;;;;6248789;22;20027;-83
2023/11/09 03:15:13;;;;;;;15.13;5.22;;;;;;;;;;6286325;22;20031;-83
2023/11/09 03:17:43;;;;;;;11.23;5.90;;;;;;;;;;6248106;22;20023;-83
2023/11/09 03:20:13;;;;;;;9.43;4.95;;;;;;;;;;6276591;22;20411;-82
2023/11/09 03:22:45;;;;;;;13.55;5.47;;;;;;;;;;6223235;22;20350;-82
2023/11/09 03:25:16;;;;;;;12.10;4.90;;;;;;;;;;6249358;22;20016;-83
2023/11/09 03:27:47;;;;;;;13.95;5.50;;;;;;;;;;6249513;22;20016;-83
2023/11/09 03:30:17;;;;;;;10.82;5.40;;;;;;;;;;6287207;22;20019;-82
2023/11/09 03:32:48;;;;;;;11.18;4.97;;;;;;;;;;6249138;22;20024;-82
2023/11/09 03:35:19;;;;;;;13.27;5.35;;;;;;;;;;6260174;22;20339;-82
2023/11/09 03:37:49;;;;;;;16.95;5.47;;;;;;;;;;6276218;22;20012;-84
2023/11/09 03:40:19;;;;;;;14.25;4.90;;;;;;;;;;6276202;22;20012;-83
2023/11/09 03:42:49;;;;;;;11.75;4.65;;;;;;;;;;6249713;22;20461;-83
2023/11/09 03:45:19;;;;;;;12.02;5.05;;;;;;;;;;6276150;22;20320;-84
2023/11/09 03:47:50;;;;;;;13.63;5.43;;;;;;;;;;6247692;22;20020;-83
2023/11/09 03:50:21;;;;;;;13.05;5.25;;;;;;;;;;6261265;22;20462;-83
2023/11/09 03:52:51;;;;;;;11.73;5.75;;;;;;;;;;6252611;22;20023;-83
2023/11/09 03:55:21;;;;;;;11.63;5.35;;;;;;;;;;6278423;22;20020;-83
2023/11/09 03:57:51;;;;;;;14.43;5.00;;;;;;;;;;6250346;22;20343;-83
2023/11/09 04:00:22;;;;;;;12.45;4.55;;;;;;;;;;6252010;22;20016;-82
2023/11/09 04:02:53;;;;;;;11.00;5.05;;;;;;;;;;6262029;22;20047;-83
2023/11/09 04:05:23;;;;;;;10.98;4.65;;;;;;;;;;6277478;22;20023;-83
2023/11/09 04:07:53;;;;;;;15.05;5.25;;;;;;;;;;6278307;22;20016;-83
2023/11/09 04:10:24;;;;;;;10.25;5.10;;;;;;;;;;6285375;22;20335;-82
2023/11/09 04:12:55;;;;;;;13.30;5.78;;;;;;;;;;6249542;22;20058;-82
2023/11/09 04:15:26;;;;;;;14.57;6.18;;;;;;;;;;6261755;22;20026;-83
2023/11/09 04:17:58;;;;;;;14.68;6.30;;;;;;;;;;6288242;22;20016;-82
2023/11/09 04:20:28;;;;;;;15.82;7.28;;;;;;;;;;6278922;22;20022;-82
2023/11/09 04:22:58;;;;;;;20.30;6.78;;;;;;;;;;6277718;22;20016;-83
2023/11/09 04:25:29;;;;;;;15.10;6.72;;;;;;;;;;6277641;22;20019;-83
2023/11/09 04:28:00;;;;;;;12.82;6.38;;;;;;;;;;6251800;22;20030;-83
2023/11/09 04:30:31;;;;;;;12.43;5.70;;;;;;;;;;6250979;22;20019;-82
2023/11/09 04:33:01;;;;;;;15.55;5.30;;;;;;;;;;6250851;22;20026;-82
2023/11/09 04:35:31;;;;;;;14.25;5.78;;;;;;;;;;6288180;22;20331;-82
2023/11/09 04:38:04;;;;;;;14.50;5.88;;;;;;;;;;6287402;22;20011;-82
2023/11/09 04:40:34;;;;;;;13.20;5.43;;;;;;;;;;6278519;22;20015;-82
2023/11/09 04:43:07;;;;;;;11.48;5.57;;;;;;;;;;6277288;22;20339;-82
2023/11/09 04:45:42;;;;;;;16.85;5.82;;;;;;;;;;6225264;22;20020;-82
2023/11/09 04:48:20;;;;;;;15.55;5.55;;;;;;;;;;6287790;22;20023;-82
2023/11/09 04:51:01;;;;;;;14.18;5.47;;;;;;;;;;6287441;22;20015;-81
2023/11/09 04:53:39;;;;;;;12.98;6.28;;;;;;;;;;6287891;22;20012;-82
2023/11/09 04:56:19;;;;;;;;;;;;;;;;;;6287852;22;20335;-83
2023/11/09 04:59:01;;;;;;;14.40;6.03;;;;;;;;;;6287712;22;19915;-82
2023/11/09 05:07:10;;;;;;;12.93;4.97;;;;;;;;;;6250191;22;20474;-83
2023/11/09 05:09:39;;;;;;;12.00;6.25;;;;;;;;;;6249545;22;20339;-82
2023/11/09 05:12:09;;;;;;;11.20;5.43;;;;;;;;;;6250518;22;20024;-83
2023/11/09 05:14:40;;;;;;;12.65;6.10;;;;;;;;;;6249011;22;20020;-82
2023/11/09 05:17:15;;;;;;;14.10;6.05;;;;;;;;;;6261421;22;20008;-82
2023/11/09 05:19:46;;;;;;;15.88;5.78;;;;;;;;;;6249973;22;20440;-82
2023/11/09 05:22:17;;;;;;;15.23;6.43;;;;;;;;;;6287720;22;20014;-83
2023/11/09 05:24:48;;;;;;;14.98;6.25;;;;;;;;;;6287479;22;20288;-83
2023/11/09 05:27:22;;;;;;;14.13;5.97;;;;;;;;;;6249593;22;20062;-81
2023/11/09 05:29:53;;;;;;;12.05;5.63;;;;;;;;;;6277103;22;20019;-82
2023/11/09 05:32:24;;;;;;;13.02;5.00;;;;;;;;;;6276481;22;20027;-82
2023/11/09 05:34:55;;;;;;;11.43;4.93;;;;;;;;;;6261368;22;20012;-82
2023/11/09 05:37:26;;;;;;;9.32;4.95;;;;;;;;;;6277381;22;20018;-81
2023/11/09 05:39:56;;;;;;;15.85;5.13;;;;;;;;;;6250661;22;20016;-81
2023/11/09 05:42:26;;;;;;;14.55;4.82;;;;;;;;;;6276473;22;20344;-81
2023/11/09 05:44:57;;;;;;;13.43;4.90;;;;;;;;;;6276818;22;20016;-82
2023/11/09 05:47:28;;;;;;;12.70;5.05;;;;;;;;;;6287592;22;20015;-82
2023/11/09 05:50:00;;;;;;;10.10;4.65;;;;;;;;;;6249624;22;20027;-81
2023/11/09 05:52:30;;;;;;;11.90;4.78;;;;;;;;;;6276724;22;20009;-82
2023/11/09 05:55:01;;;;;;;12.85;4.68;;;;;;;;;;6278142;22;20022;-81
2023/11/09 05:57:33;;;;;;;13.10;5.15;;;;;;;;;;6286820;22;20019;-81
2023/11/09 06:00:05;;;;;;;13.93;5.25;;;;;;;;;;6249767;22;20016;-81
2023/11/09 06:02:36;;;;;;;9.70;4.57;;;;;;;;;;6286966;22;20011;-81
2023/11/09 06:05:06;;;;;;;11.45;4.82;;;;;;;;;;6277276;22;20012;-81
2023/11/09 06:07:36;;;;;;;16.30;5.43;;;;;;;;;;6250003;22;20016;-82
2023/11/09 06:10:09;;;;;;;13.80;4.68;;;;;;;;;;6248797;22;20030;-81
2023/11/09 06:12:40;;;;;;;;;;;;;;;;;;6250081;22;20022;-81
2023/11/09 06:15:12;;;;;;;13.80;5.05;;;;;;;;;;6286891;22;19922;-80
2023/11/09 06:17:45;;;;;;;10.32;4.82;;;;;;;;;;6260722;22;20019;-81
2023/11/09 06:20:16;;;;;;;12.10;5.20;;;;;;;;;;6276898;22;20012;-81
2023/11/09 06:22:46;;;;;;;12.88;5.57;;;;;;;;;;6276282;22;20012;-82
2023/11/09 06:25:17;;;;;;;11.32;5.03;;;;;;;;;;6250009;22;20335;-82
2023/11/09 06:27:46;;;;;;;10.50;4.63;;;;;;;;;;6250100;22;20034;-82
2023/11/09 06:30:17;;;;;;;18.92;5.82;;;;;;;;;;6276107;22;20359;-82
2023/11/09 06:32:48;;;;;;;12.80;6.13;;;;;;;;;;6259861;22;20008;-81
2023/11/09 06:35:18;;;;;;;14.85;5.90;;;;;;;;;;6249577;22;20018;-81
2023/11/09 06:37:50;;;;;;;14.35;6.18;;;;;;;;;;6248743;22;20020;-82
2023/11/09 06:40:20;;;;;;;20.85;6.47;;;;;;;;;;6287189;22;20015;-82
2023/11/09 06:42:51;;;;;;;12.48;5.95;;;;;;;;;;6286969;22;20015;-82
2023/11/09 06:45:21;;;;;;;16.98;4.78;;;;;;;;;;6249814;22;20020;-82
2023/11/09 06:47:51;;;;;;;11.57;4.88;;;;;;;;;;6249463;22;20461;-82
2023/11/09 06:50:21;;;;;;;12.38;5.25;;;;;;;;;;6276975;22;20023;-81
2023/11/09 06:52:55;;;;;;;14.05;5.95;;;;;;;;;;6286570;22;20019;-81
2023/11/09 06:55:28;;;;;;;11.35;4.60;;;;;;;;;;6287207;22;20008;-81
2023/11/09 06:57:59;;;;;;;12.35;5.30;;;;;;;;;;6286302;22;20019;-82
2023/11/09 07:00:29;;;;;;;14.35;6.13;;;;;;;;;;6249222;22;20443;-81
2023/11/09 07:02:58;;;;;;;11.23;5.30;;;;;;;;;;6276110;22;20012;-81
2023/11/09 07:05:29;;;;;;;9.88;5.35;;;;;;;;;;6250905;22;20016;-81
2023/11/09 07:07:59;;;;;;;13.02;5.70;;;;;;;;;;6250420;22;20023;-81
2023/11/09 07:10:29;;;;;;;13.23;5.40;;;;;;;;;;6276456;22;20023;-81
2023/11/09 07:13:00;;;;;;;9.75;4.88;;;;;;;;;;6228319;22;20031;-80
2023/11/09 07:15:31;;;;;;;8.07;4.05;;;;;;;;;;6259258;22;20455;-80
2023/11/09 07:18:03;;;;;;;8.10;3.70;;;;;;;;;;6260496;22;20034;-82
2023/11/09 07:20:35;;;;;;;9.07;3.40;;;;;;;;;;6297014;22;20008;-81
2023/11/09 07:23:06;;;;;;;7.72;4.18;;;;;;;;;;6288388;22;20015;-82
2023/11/09 07:25:37;;;;;;;14.70;4.88;;;;;;;;;;6251605;22;20024;-82
2023/11/09 07:28:08;;;;;;;14.85;4.68;;;;;;;;;;6279016;22;20007;-81
2023/11/09 07:30:38;;;;;;;11.68;5.55;;;;;;;;;;6226550;22;20024;-81
2023/11/09 07:33:09;;;;;;;11.77;5.45;;;;;;;;;;6279069;22;20007;-82
2023/11/09 07:35:39;;;;;;;13.15;5.30;;;;;;;;;;6250587;22;20028;-82
2023/11/09 07:38:13;;;;;;;13.65;5.68;;;;;;;;;;6250493;22;20434;-82
2023/11/09 07:40:44;;;;;;;9.70;5.10;;;;;;;;;;6288693;22;20014;-82
2023/11/09 07:43:15;;;;;;;11.52;5.95;;;;;;;;;;6288920;22;20018;-81
2023/11/09 07:45:45;;;;;;;16.30;5.82;;;;;;;;;;6278178;22;20019;-81
2023/11/09 07:48:16;;;;;;;15.00;5.40;;;;;;;;;;6262236;22;20066;-81
2023/11/09 07:50:49;;;;;;;12.15;5.55;;;;;;;;;;6278559;22;20018;-81
2023/11/09 07:53:21;;;;;;;9.80;4.82;;;;;;;;;;6288319;22;20008;-81
2023/11/09 07:55:52;;;;;;;13.93;6.32;;;;;;;;;;6249648;22;20019;-80
2023/11/09 07:58:31;;;;;;;10.23;4.82;;;;;;;;;;6250371;22;20016;-81
2023/11/09 08:01:01;;;;;;;16.60;6.07;;;;;;;;;;6277645;22;20023;-81
2023/11/09 08:03:31;;;;;;;12.30;5.70;;;;;;;;;;6278434;22;20447;-82
2023/11/09 08:06:02;;;;;;;13.90;6.65;;;;;;;;;;6288213;22;20016;-81
2023/11/09 08:08:32;;;;;;;12.32;6.47;;;;;;;;;;6251358;22;20023;-81
2023/11/09 08:11:03;;;;;;;12.68;5.53;;;;;;;;;;6277714;22;20016;-82
2023/11/09 08:13:33;;;;;;;12.85;5.95;;;;;;;;;;6278020;22;20023;-82
2023/11/09 08:16:05;;;;;;;14.48;5.05;;;;;;;;;;6278385;22;20012;-82
2023/11/09 08:18:35;;;;;;;10.27;5.70;;;;;;;;;;6287881;22;20018;-82
2023/11/09 08:21:05;;;;;;;12.82;5.78;;;;;;;;;;6250781;22;20026;-82
2023/11/09 08:23:39;;;;;;;13.55;6.20;;;;;;;;;;6288695;22;20446;-81
2023/11/09 08:26:11;;;;;;;16.08;5.70;;;;;;;;;;6288225;22;20012;-81
2023/11/09 08:28:42;;;;;;;12.20;5.20;;;;;;;;;;6287941;22;20019;-81
2023/11/09 08:31:13;;;;;;;13.10;5.93;;;;;;;;;;6251790;22;20047;-81
2023/11/09 08:33:45;;;;;;;11.05;5.47;;;;;;;;;;6287841;22;20008;-82
2023/11/09 08:36:15;;;;;;;12.88;5.75;;;;;;;;;;6287915;22;20007;-82
2023/11/09 08:38:45;;;;;;;19.92;6.22;;;;;;;;;;6249805;22;20016;-83
2023/11/09 08:41:16;;;;;;;14.63;6.60;;;;;;;;;;6251457;22;20022;-82
2023/11/09 08:43:48;;;;;;;14.15;6.05;;;;;;;;;;6249741;22;20020;-82
2023/11/09 08:46:18;;;;;;;16.45;6.13;;;;;;;;;;6288216;22;20015;-82
2023/11/09 08:48:49;;;;;;;14.93;6.43;;;;;;;;;;6277913;22;20020;-81
2023/11/09 08:51:19;;;;;;;13.15;6.45;;;;;;;;;;6278312;22;20309;-82
2023/11/09 08:53:50;;;;;;;16.67;6.05;;;;;;;;;;6288031;22;20023;-81
2023/11/09 08:56:22;;;;;;;10.13;4.65;;;;;;;;;;6287399;22;20018;-82
2023/11/09 08:58:53;;;;;;;12.25;6.00;;;;;;;;;;6287604;22;20007;-81
2023/11/09 09:01:28;;;;;;;15.75;6.05;;;;;;;;;;6248260;22;20023;-81
2023/11/09 09:03:59;;;;;;;10.65;6.00;;;;;;;;;;6286937;22;20015;-81
2023/11/09 09:06:30;;;;;;;16.17;5.15;;;;;;;;;;6249325;22;20020;-80
2023/11/09 09:09:04;;;;;;;11.63;4.95;;;;;;;;;;6224250;22;20067;-81
2023/11/09 09:11:37;;;;;;;14.48;4.53;;;;;;;;;;6251728;22;20016;-81
2023/11/09 09:14:08;;;;;;;13.02;4.97;;;;;;;;;;6286599;22;20011;-81
2023/11/09 09:16:38;;;;;;;11.60;5.07;;;;;;;;;;6275719;22;20023;-81
2023/11/09 09:19:12;;;;;;;12.00;5.15;;;;;;;;;;6286144;22;20008;-81
2023/11/09 09:21:43;;;;;;;11.82;5.40;;;;;;;;;;6286004;22;20066;-81
2023/11/09 09:24:13;;;;;;;14.48;5.45;;;;;;;;;;6260226;22;20027;-81
2023/11/09 09:26:43;;;;;;;11.00;5.43;;;;;;;;;;6247783;22;20421;-81
2023/11/09 09:29:13;;;;;;;14.90;5.78;;;;;;;;;;6276236;22;20019;-83
2023/11/09 09:31:43;;;;;;;15.32;5.47;;;;;;;;;;6248972;22;20443;-82
2023/11/09 09:34:23;;;;;;;13.10;5.60;;;;;;;;;;6276027;22;20012;-80
2023/11/09 09:36:58;;;;;;;13.32;5.03;;;;;;;;;;6247620;22;20018;-82
2023/11/09 09:39:29;;;;;;;11.70;4.88;;;;;;;;;;6247778;22;20404;-82
2023/11/09 09:42:02;;;;;;;15.38;5.35;;;;;;;;;;6249460;22;20020;-81
2023/11/09 09:44:33;;;;;;;15.35;5.55;;;;;;;;;;6248977;22;20016;-82
2023/11/09 09:47:07;;;;;;;11.02;5.10;;;;;;;;;;6248100;22;20019;-82
2023/11/09 09:49:39;;;;;;;14.80;5.80;;;;;;;;;;6247912;22;20342;-82
2023/11/09 09:52:11;;;;;;;14.07;5.35;;;;;;;;;;6260643;22;20007;-82
2023/11/09 09:54:41;;;;;;;12.00;5.45;;;;;;;;;;6276542;22;20020;-82
2023/11/09 09:57:12;;;;;;;11.40;5.57;;;;;;;;;;6286644;22;20008;-81
2023/11/09 09:59:42;;;;;;;16.45;6.07;;;;;;;;;;6275711;22;20030;-81
2023/11/09 10:02:15;;;;;;;15.02;5.47;;;;;;;;;;6286566;22;20023;-84
2023/11/09 10:04:46;;;;;;;17.92;8.63;;;;;;;;;;6286328;22;20008;-82
2023/11/09 10:07:17;;;;;;;18.17;7.47;;;;;;;;;;6286522;22;20014;-81
2023/11/09 10:09:50;;;;;;;21.10;10.77;;;;;;;;;;6248424;22;20431;-81
2023/11/09 10:12:21;;;;;;;21.33;9.27;;;;;;;;;;6287180;22;20012;-82
2023/11/09 10:14:51;;;;;;;18.35;9.25;;;;;;;;;;6249994;22;20020;-81
2023/11/09 10:17:22;;;;;;;17.60;8.82;;;;;;;;;;6248771;22;20031;-82
2023/11/09 10:19:52;;;;;;;19.45;8.43;;;;;;;;;;6223631;22;20324;-84
2023/11/09 10:22:24;;;;;;;18.25;8.90;;;;;;;;;;6285506;22;20494;-84
2023/11/09 10:24:56;;;;;;;17.45;8.70;;;;;;;;;;6224163;22;20018;-85
2023/11/09 10:27:30;;;;;;;18.10;8.00;;;;;;;;;;6248462;22;20011;-84
2023/11/09 10:30:02;;;;;;;13.30;6.40;;;;;;;;;;6222555;22;20019;-85
2023/11/09 10:32:36;;;;;;;14.13;6.38;;;;;;;;;;6285057;22;20351;-83
2023/11/09 10:35:08;;;;;;;15.93;6.85;;;;;;;;;;6285744;22;20008;-82
2023/11/09 10:37:40;;;;;;;19.00;7.78;;;;;;;;;;6285664;22;20031;-82
2023/11/09 10:40:13;;;;;;;20.25;6.93;;;;;;;;;;6259160;22;20351;-80
2023/11/09 10:42:45;;;;;;;16.42;6.10;;;;;;;;;;6285510;22;20022;-81
2023/11/09 10:45:22;;;;;;;15.98;6.50;;;;;;;;;;6284861;22;20019;-82
2023/11/09 10:47:55;;;;;;;15.75;6.15;;;;;;;;;;6285022;22;20012;-82
2023/11/09 10:50:28;;;;;;;14.32;5.40;;;;;;;;;;6285286;22;20012;-82
2023/11/09 10:53:04;;;;;;;13.10;5.00;;;;;;;;;;6285624;22;20014;-83
2023/11/09 10:55:36;;;;;;;9.93;4.60;;;;;;;;;;6247476;22;20323;-82
2023/11/09 10:58:09;;;;;;;9.35;4.53;;;;;;;;;;6285094;22;20070;-81
2023/11/09 11:00:44;;;;;;;10.00;3.35;;;;;;;;;;6285140;22;20012;-80
2023/11/09 11:03:27;;;;;;;7.32;2.90;;;;;;;;;;6285152;22;20008;-80
2023/11/09 11:06:23;;;;;;;8.88;3.63;;;;;;;;;;6259040;22;20007;-82
2023/11/09 11:09:00;;;;;;;6.13;2.47;;;;;;;;;;6285079;22;20015;-83
2023/11/09 11:11:33;;;;;;;4.80;2.47;;;;;;;;;;6246784;22;20019;-81
2023/11/09 11:14:11;;;;;;;6.32;3.05;;;;;;;;;;6246114;22;20019;-79
2023/11/09 11:17:20;;;;;;;8.35;3.10;;;;;;;;;;6223009;22;20473;-80
2023/11/09 11:20:08;;;;;;;4.90;1.73;;;;;;;;;;6248528;22;20023;-80
2023/11/09 11:23:13;;;;;;;5.30;2.40;;;;;;;;;;6285066;22;20012;-80
2023/11/09 11:26:11;;;;;;;8.50;3.00;;;;;;;;;;6197764;22;20023;-80
2023/11/09 11:28:42;;;;;;;3.28;1.70;;;;;;;;;;6273356;22;20012;-80
2023/11/09 11:31:15;;;;;;;3.80;1.90;;;;;;;;;;6285641;22;20119;-82
2023/11/09 11:33:47;;;;;;;3.47;1.98;;;;;;;;;;6285434;22;20008;-84
2023/11/09 11:36:30;;;;;;;5.30;2.45;;;;;;;;;;6248230;22;20034;-83
2023/11/09 11:39:21;;;;;;;4.47;2.13;;;;;;;;;;6247674;22;20012;-82
2023/11/09 11:41:51;;;;;;;;;;;;;;;;;;6275568;22;20022;-83
2023/11/09 11:44:23;;;;;;;4.00;2.00;;;;;;;;;;6221573;22;19919;-84
2023/11/09 11:47:07;;;;;;;3.72;1.80;;;;;;;;;;6283981;22;20011;-80
2023/11/09 11:49:40;;;;;;;2.90;1.52;;;;;;;;;;6286125;22;20019;-80
2023/11/09 11:52:10;;;;;;;3.30;2.10;;;;;;;;;;6249397;22;20027;-78
2023/11/09 11:54:45;;;;;;;3.80;1.75;;;;;;;;;;6248968;22;20020;-80
2023/11/09 11:57:15;;;;;;;6.32;2.33;;;;;;;;;;6286905;22;20012;-82
2023/11/09 12:00:08;;;;;;;5.60;2.60;;;;;;;;;;6285652;22;20024;-80
2023/11/09 12:02:49;;;;;;;4.53;2.05;;;;;;;;;;6276693;22;20012;-81
2023/11/09 12:05:30;;;;;;;4.00;1.70;;;;;;;;;;6248797;22;20389;-81
2023/11/09 12:08:03;;;;;;;5.05;2.20;;;;;;;;;;6225217;22;20027;-80
2023/11/09 12:10:39;;;;;;;3.95;2.08;;;;;;;;;;6283211;22;20454;-81
2023/11/09 12:13:09;;;;;;;5.35;2.47;;;;;;;;;;6288093;22;20012;-80
2023/11/09 12:15:40;;;;;;;5.45;2.17;;;;;;;;;;6288049;22;20016;-82
2023/11/09 12:18:11;;;;;;;5.25;1.80;;;;;;;;;;6288169;22;20015;-79
2023/11/09 12:20:44;;;;;;;4.47;1.90;;;;;;;;;;6288309;22;20019;-81
2023/11/09 12:23:15;;;;;;;3.03;1.52;;;;;;;;;;6288023;22;20470;-81
2023/11/09 12:25:53;;;;;;;4.65;2.30;;;;;;;;;;6287637;22;20022;-79
2023/11/09 12:28:23;;;;;;;5.95;2.33;;;;;;;;;;6261781;22;20011;-82
2023/11/09 12:30:55;;;;;;;3.63;2.13;;;;;;;;;;6250150;22;20023;-82
2023/11/09 12:33:26;;;;;;;4.18;2.03;;;;;;;;;;6287677;22;20018;-82
2023/11/09 12:36:04;;;;;;;3.92;1.92;;;;;;;;;;6278739;22;20022;-83
2023/11/09 12:38:36;;;;;;;4.85;1.67;;;;;;;;;;6288145;22;20008;-82
2023/11/09 12:41:06;;;;;;;5.40;2.10;;;;;;;;;;6288225;22;20019;-81
2023/11/09 12:43:39;;;;;;;5.45;1.88;;;;;;;;;;6278506;22;20023;-79
2023/11/09 12:46:19;;;;;;;5.03;1.02;;;;;;;;;;6287997;22;20012;-79
2023/11/09 12:48:56;;;;;;;2.33;0.80;;;;;;;;;;6288226;22;20014;-78
2023/11/09 12:51:28;;;;;;;2.45;0.63;;;;;;;;;;6287329;22;20465;-79
2023/11/09 12:54:00;;;;;;;3.35;1.80;;;;;;;;;;6261279;22;20012;-79
2023/11/09 12:56:31;;;;;;;3.53;1.42;;;;;;;;;;6288031;22;20012;-80
2023/11/09 12:59:12;;;;;;;0.85;0.70;;;;;;;;;;6287630;22;20458;-80
2023/11/09 13:01:43;;;;;;;1.88;0.90;;;;;;;;;;6287522;22;20023;-79
2023/11/09 13:04:21;;;;;;;2.67;1.20;;;;;;;;;;6277301;22;20012;-80
2023/11/09 13:06:54;;;;;;;43.03;25.38;;;;;;;;;;6287338;22;20008;-79
2023/11/09 13:14:52;;;;;;;2.80;1.27;;;;;;;;;;6287447;22;20008;-80
2023/11/09 13:17:22;;;;;;;1.80;0.77;;;;;;;;;;6287139;22;20026;-79
2023/11/09 13:19:53;;;;;;;3.70;2.10;;;;;;;;;;6277969;22;20019;-80
2023/11/09 13:22:23;;;;;;;1.88;0.93;;;;;;;;;;6274551;22;20020;-80
2023/11/09 13:24:54;;;;;;;3.65;1.73;;;;;;;;;;6276254;22;20439;-80
2023/11/09 13:27:24;;;;;;;2.92;1.40;;;;;;;;;;6286829;22;20011;-80
2023/11/09 13:29:56;;;;;;;4.90;1.20;;;;;;;;;;6276081;22;20335;-81
2023/11/09 13:32:27;;;;;;;2.85;1.50;;;;;;;;;;6260501;22;20016;-80
2023/11/09 13:37:55;;;;;;;2.60;1.30;;;;;;;;;;6286757;22;20012;-79
2023/11/09 13:43:11;;;;;;;4.82;1.38;;;;;;;;;;6286718;22;20018;-81
2023/11/09 13:45:46;;;;;;;3.30;1.40;;;;;;;;;;6296472;22;20022;-81
2023/11/09 13:48:23;;;;;;;2.85;1.33;;;;;;;;;;6283772;22;20073;-80
2023/11/09 13:50:58;;;;;;;5.72;3.15;;;;;;;;;;6288884;22;20019;-80
2023/11/09 13:58:52;;;;;;;8.65;2.70;;;;;;;;;;6286746;22;20008;-78
2023/11/09 14:01:28;;;;;;;8.52;3.97;;;;;;;;;;6286424;22;20016;-81
2023/11/09 14:03:58;;;;;;;7.82;3.60;;;;;;;;;;6286645;22;20016;-80
2023/11/09 14:06:28;;;;;;;3.78;2.25;;;;;;;;;;6276661;22;20015;-79
2023/11/09 14:08:58;;;;;;;5.47;2.90;;;;;;;;;;6247723;22;20020;-80
2023/11/09 14:11:29;;;;;;;6.40;3.83;;;;;;;;;;6276016;22;20016;-80
2023/11/09 14:14:20;;;;;;;4.25;2.25;;;;;;;;;;6276972;22;20026;-81
2023/11/09 14:16:57;;;;;;;6.07;2.70;;;;;;;;;;6246515;22;20012;-81
2023/11/09 14:19:35;;;;;;;5.18;2.25;;;;;;;;;;6276394;22;20022;-81
2023/11/09 14:22:05;;;;;;;5.15;2.78;;;;;;;;;;6286146;22;20455;-81
2023/11/09 14:24:38;;;;;;;7.53;3.40;;;;;;;;;;6275898;22;20011;-81
2023/11/09 14:27:09;;;;;;;4.28;2.45;;;;;;;;;;6286558;22;20012;-80
2023/11/09 14:29:46;;;;;;;4.78;2.70;;;;;;;;;;6285966;22;20035;-81
2023/11/09 14:32:21;;;;;;;5.13;2.33;;;;;;;;;;6285768;22;20018;-80
2023/11/09 14:34:53;;;;;;;5.20;2.58;;;;;;;;;;6285591;22;20008;-81
2023/11/09 14:37:24;;;;;;;4.25;2.40;;;;;;;;;;6286591;22;20014;-80
2023/11/09 14:40:06;;;;;;;3.58;1.73;;;;;;;;;;6275813;22;20016;-80
2023/11/09 14:42:36;;;;;;;4.10;1.90;;;;;;;;;;6285363;22;20012;-80
2023/11/09 14:45:09;;;;;;;4.85;2.10;;;;;;;;;;6275989;22;20019;-81
2023/11/09 14:47:43;;;;;;;3.92;2.13;;;;;;;;;;6259285;22;20320;-80
2023/11/09 14:50:20;;;;;;;5.00;2.13;;;;;;;;;;6287142;22;20007;-80
2023/11/09 14:55:32;;;;;;;5.18;2.22;;;;;;;;;;6287610;22;20316;-82
2023/11/09 14:58:10;;;;;;;4.30;2.47;;;;;;;;;;6277119;22;20019;-82
2023/11/09 15:00:45;;;;;;;4.55;2.40;;;;;;;;;;6248887;22;20023;-81
2023/11/09 15:03:26;;;;;;;5.10;2.05;;;;;;;;;;6286518;22;20018;-83
2023/11/09 15:06:46;;;;;;;5.22;1.88;;;;;;;;;;6248976;22;20012;-81
2023/11/09 15:09:19;;;;;;;4.28;2.10;;;;;;;;;;6274431;22;20126;-82
2023/11/09 15:12:19;;;;;;;4.28;2.10;;;;;;;;;;6277333;22;20048;-80
2023/11/09 15:15:09;;;;;;;3.65;1.63;;;;;;;;;;6246333;22;20022;-81
2023/11/09 15:17:42;;;;;;;4.75;2.10;;;;;;;;;;6259097;22;20023;-79
2023/11/09 15:20:22;;;;;;;3.97;2.28;;;;;;;;;;6245982;22;20375;-80
2023/11/09 15:22:56;;;;;;;5.13;2.67;;;;;;;;;;6244685;22;20020;-81
2023/11/09 15:25:33;;;;;;;5.40;2.20;;;;;;;;;;6246638;22;20012;-79
2023/11/09 15:28:05;;;;;;;4.70;2.50;;;;;;;;;;6285102;22;20011;-80
2023/11/09 15:30:35;;;;;;;5.00;2.72;;;;;;;;;;6285178;22;20008;-79
2023/11/09 15:33:06;;;;;;;4.80;2.35;;;;;;;;;;6248686;22;20012;-81